createdAt,value
2022-12-22T00:00:23.386Z,196.00
2022-12-22T00:04:14.838Z,231.00
2022-12-22T00:07:36.031Z,208.00
2022-12-22T00:11:03.058Z,256.25
2022-12-22T00:14:32.226Z,240.25
2022-12-22T00:18:00.779Z,249.75
2022-12-22T00:21:26.296Z,244.75
2022-12-22T00:25:01.742Z,226.75
2022-12-22T00:28:37.780Z,223.50
2022-12-22T00:32:09.689Z,241.00
2022-12-22T00:35:36.494Z,215.25
2022-12-22T00:39:08.765Z,238.00
2022-12-22T00:42:36.275Z,196.50
2022-12-22T00:46:02.015Z,218.25
2022-12-22T00:49:34.204Z,230.75
2022-12-22T00:53:07.079Z,242.00
2022-12-22T00:56:30.135Z,239.25
2022-12-22T00:59:54.754Z,268.50
2022-12-22T01:03:15.802Z,261.00
2022-12-22T01:07:30.685Z,255.50
2022-12-22T01:10:59.660Z,239.75
2022-12-22T01:15:20.616Z,296.75
2022-12-22T01:18:44.953Z,291.00
2022-12-22T01:22:08.079Z,319.25
2022-12-22T01:25:38.552Z,320.00
2022-12-22T01:29:02.088Z,286.25
2022-12-22T01:32:25.676Z,292.00
2022-12-22T01:35:53.329Z,272.50
2022-12-22T01:39:18.567Z,319.50
2022-12-22T01:42:44.838Z,287.00
2022-12-22T01:46:10.507Z,288.75
2022-12-22T01:49:36.435Z,317.00
2022-12-22T01:53:02.968Z,331.00
2022-12-22T01:56:26.529Z,297.25
2022-12-22T01:59:50.419Z,326.25
2022-12-22T02:03:14.267Z,248.00
2022-12-22T02:07:00.799Z,265.50
2022-12-22T02:10:43.413Z,331.50
2022-12-22T02:14:18.363Z,293.50
2022-12-22T02:17:49.246Z,280.00
2022-12-22T02:21:18.250Z,267.50
2022-12-22T02:24:49.932Z,272.25
2022-12-22T02:28:15.581Z,275.50
2022-12-22T02:31:38.117Z,286.50
2022-12-22T02:35:02.314Z,233.25
2022-12-22T02:38:43.073Z,279.25
2022-12-22T02:42:15.433Z,251.75
2022-12-22T02:49:35.690Z,280.00
2022-12-22T02:53:07.215Z,269.00
2022-12-22T02:56:33.900Z,246.25
2022-12-22T02:59:57.682Z,244.50
2022-12-22T03:03:25.883Z,241.75
2022-12-22T03:06:47.366Z,235.75
2022-12-22T03:10:08.599Z,259.75
2022-12-22T03:14:27.773Z,231.00
2022-12-22T03:17:52.387Z,212.25
2022-12-22T03:21:17.002Z,229.75
2022-12-22T03:24:44.525Z,235.25
2022-12-22T03:27:55.029Z,227.00
2022-12-22T03:31:03.330Z,191.75
2022-12-22T03:34:11.348Z,137.25
2022-12-22T03:37:17.274Z,213.25
2022-12-22T03:40:26.676Z,222.50
2022-12-22T03:43:51.387Z,186.25
2022-12-22T03:47:02.357Z,194.00
2022-12-22T03:50:17.788Z,178.75
2022-12-22T03:53:33.855Z,135.25
2022-12-22T03:56:46.635Z,211.00
2022-12-22T03:59:56.538Z,170.50
2022-12-22T04:03:03.738Z,201.75
2022-12-22T04:06:12.946Z,203.25
2022-12-22T04:09:23.946Z,173.00
2022-12-22T04:13:06.030Z,197.00
2022-12-22T04:16:17.539Z,200.25
2022-12-22T04:19:27.373Z,189.75
2022-12-22T04:22:37.526Z,179.00
2022-12-22T04:25:50.566Z,192.75
2022-12-22T04:28:56.709Z,198.00
2022-12-22T04:32:11.527Z,183.50
2022-12-22T04:35:20.580Z,186.75
2022-12-22T04:38:27.337Z,182.75
2022-12-22T04:41:33.492Z,169.25
2022-12-22T04:44:39.972Z,165.75
2022-12-22T04:47:45.554Z,164.50
2022-12-22T04:50:58.488Z,166.50
2022-12-22T04:54:06.697Z,157.75
2022-12-22T05:02:37.212Z,156.25
2022-12-22T05:05:49.465Z,27.25
2022-12-22T05:09:03.165Z,149.50
2022-12-22T05:12:30.534Z,135.67
2022-12-22T05:15:38.948Z,129.33
2022-12-22T05:18:50.183Z,129.67
2022-12-22T05:21:57.279Z,132.67
2022-12-22T05:25:03.696Z,132.67
2022-12-22T05:28:11.301Z,126.33
2022-12-22T05:31:19.409Z,129.67
2022-12-22T05:34:31.801Z,120.33
2022-12-22T05:37:42.763Z,117.67
2022-12-22T05:40:58.358Z,110.67
2022-12-22T05:44:13.982Z,110.67
2022-12-22T05:47:33.060Z,118.00
2022-12-22T05:50:50.037Z,118.00
2022-12-22T05:54:06.551Z,111.67
2022-12-22T05:57:15.725Z,116.33
2022-12-22T06:00:23.703Z,181.75
2022-12-22T06:03:35.599Z,233.00
2022-12-22T06:06:45.209Z,219.50
2022-12-22T06:09:54.331Z,307.50
2022-12-22T06:13:08.059Z,195.50
2022-12-22T06:16:24.101Z,139.00
2022-12-22T06:19:42.560Z,156.50
2022-12-22T06:22:53.109Z,272.25
2022-12-22T06:26:03.843Z,189.25
2022-12-22T06:29:12.747Z,145.50
2022-12-22T06:32:19.260Z,144.75
2022-12-22T06:36:16.513Z,153.75
2022-12-22T06:43:28.026Z,171.00
2022-12-22T06:47:09.861Z,118.00
2022-12-22T06:50:14.289Z,143.00
2022-12-22T06:53:22.936Z,114.67
2022-12-22T06:56:28.730Z,109.00
2022-12-22T06:59:33.207Z,111.67
2022-12-22T07:02:40.403Z,144.00
2022-12-22T07:05:53.825Z,222.50
2022-12-22T07:08:58.421Z,249.50
2022-12-22T07:12:37.253Z,171.75
2022-12-22T07:15:44.252Z,190.50
2022-12-22T07:18:49.710Z,166.75
2022-12-22T07:21:53.881Z,159.75
2022-12-22T07:24:59.187Z,272.25
2022-12-22T07:28:06.939Z,310.50
2022-12-22T07:31:20.983Z,355.00
2022-12-22T07:34:33.904Z,312.00
2022-12-22T07:37:41.441Z,370.25
2022-12-22T07:40:51.858Z,315.75
2022-12-22T07:44:01.500Z,349.50
2022-12-22T07:47:35.563Z,351.50
2022-12-22T07:50:40.019Z,356.25
2022-12-22T07:53:43.862Z,404.50
2022-12-22T07:56:49.931Z,336.75
2022-12-22T07:59:55.791Z,358.25
2022-12-22T08:03:01.913Z,294.75
2022-12-22T08:06:06.517Z,263.25
2022-12-22T08:09:15.218Z,287.25
2022-12-22T08:12:19.449Z,262.00
2022-12-22T08:15:28.058Z,290.00
2022-12-22T08:18:35.643Z,286.75
2022-12-22T08:21:44.204Z,281.50
2022-12-22T08:24:55.060Z,262.25
2022-12-22T08:28:00.158Z,271.50
2022-12-22T08:31:06.005Z,256.25
2022-12-22T08:34:14.495Z,284.25
2022-12-22T08:37:20.734Z,277.50
2022-12-22T08:40:28.778Z,279.25
2022-12-22T08:43:36.632Z,248.25
2022-12-22T08:47:16.484Z,196.00
2022-12-22T08:50:22.825Z,216.25
2022-12-22T08:54:03.465Z,241.75
2022-12-22T08:56:53.369Z,184.50
2022-12-22T08:59:57.775Z,203.00
2022-12-22T09:03:02.742Z,217.25
2022-12-22T09:06:07.612Z,204.50
2022-12-22T09:09:14.332Z,201.00
2022-12-22T09:12:22.669Z,225.00
2022-12-22T09:15:28.459Z,228.25
2022-12-22T09:18:33.709Z,213.75
2022-12-22T09:21:38.158Z,224.00
2022-12-22T09:24:42.213Z,259.25
2022-12-22T09:27:46.008Z,261.00
2022-12-22T09:30:53.785Z,254.50
2022-12-22T09:33:59.195Z,216.00
2022-12-22T09:37:06.512Z,239.00
2022-12-22T09:40:11.733Z,254.75
2022-12-22T09:43:18.722Z,182.25
2022-12-22T09:46:26.094Z,165.25
2022-12-22T09:49:32.691Z,196.75
2022-12-22T09:52:47.608Z,188.75
2022-12-22T09:55:53.661Z,175.00
2022-12-22T09:58:58.379Z,157.00
2022-12-22T10:02:13.112Z,215.75
2022-12-22T10:05:29.636Z,134.33
2022-12-22T10:08:36.629Z,152.67
2022-12-22T10:11:40.316Z,126.00
2022-12-22T10:14:48.360Z,96.33
2022-12-22T10:17:53.444Z,130.67
2022-12-22T10:21:16.535Z,129.00
2022-12-22T10:24:36.536Z,108.67
2022-12-22T10:27:46.746Z,88.75
2022-12-22T10:31:18.812Z,103.00
2022-12-22T10:34:23.004Z,119.67
2022-12-22T10:37:35.028Z,104.00
2022-12-22T10:40:45.117Z,102.00
2022-12-22T10:43:51.672Z,99.00
2022-12-22T10:46:58.394Z,106.67
2022-12-22T10:53:10.736Z,105.00
2022-12-22T10:56:30.451Z,112.67
2022-12-22T10:59:35.642Z,108.00
2022-12-22T11:02:40.795Z,99.67
2022-12-22T11:05:46.165Z,129.00
2022-12-22T11:08:52.140Z,109.67
2022-12-22T11:12:03.653Z,152.33
2022-12-22T11:15:24.225Z,113.00
2022-12-22T11:18:48.324Z,92.00
2022-12-22T11:22:00.515Z,88.25
2022-12-22T11:25:23.630Z,87.25
2022-12-22T11:28:41.428Z,81.25
2022-12-22T11:32:00.061Z,77.00
2022-12-22T11:35:14.489Z,121.67
2022-12-22T11:38:29.629Z,90.50
2022-12-22T11:41:55.974Z,79.75
2022-12-22T11:45:16.406Z,87.00
2022-12-22T11:48:39.297Z,86.75
2022-12-22T11:52:02.810Z,108.67
2022-12-22T11:55:26.415Z,96.25
2022-12-22T11:58:50.464Z,78.75
2022-12-22T12:02:26.623Z,78.00
2022-12-22T12:05:42.012Z,74.50
2022-12-22T12:09:00.585Z,79.50
2022-12-22T12:12:14.410Z,81.25
2022-12-22T12:15:33.464Z,81.50
2022-12-22T12:19:28.387Z,77.25
2022-12-22T12:23:00.347Z,80.75
2022-12-22T12:26:12.664Z,77.25
2022-12-22T12:29:21.389Z,79.25
2022-12-22T12:32:32.932Z,81.00
2022-12-22T12:35:49.145Z,75.00
2022-12-22T12:39:08.754Z,78.75
2022-12-22T12:42:29.502Z,78.50
2022-12-22T12:45:35.562Z,87.50
2022-12-22T12:48:44.339Z,78.00
2022-12-22T12:51:51.036Z,74.50
2022-12-22T12:55:33.171Z,65.50
2022-12-22T12:58:59.636Z,72.50
2022-12-22T13:02:03.930Z,69.75
2022-12-22T13:05:33.442Z,73.50
2022-12-22T13:09:40.278Z,88.00
2022-12-22T13:12:42.251Z,63.00
2022-12-22T13:15:46.297Z,71.75
2022-12-22T13:18:52.032Z,82.50
2022-12-22T13:21:59.722Z,146.67
2022-12-22T13:25:05.228Z,105.67
2022-12-22T13:28:16.564Z,107.00
2022-12-22T13:31:25.654Z,91.00
2022-12-22T13:35:29.059Z,79.50
2022-12-22T13:38:31.649Z,79.00
2022-12-22T13:41:36.295Z,84.75
2022-12-22T13:44:41.558Z,95.50
2022-12-22T13:47:49.440Z,91.25
2022-12-22T13:50:55.497Z,79.00
2022-12-22T13:54:11.026Z,120.33
2022-12-22T13:57:21.822Z,120.33
2022-12-22T14:00:27.317Z,167.00
2022-12-22T14:03:58.974Z,158.00
2022-12-22T14:06:56.542Z,157.00
2022-12-22T14:10:02.936Z,155.00
2022-12-22T14:13:10.074Z,159.33
2022-12-22T14:16:17.186Z,151.00
2022-12-22T14:19:23.759Z,163.00
2022-12-22T14:22:34.071Z,121.67
2022-12-22T14:25:42.650Z,122.33
2022-12-22T14:28:55.447Z,104.67
2022-12-22T14:32:02.065Z,91.00
2022-12-22T14:35:18.097Z,88.50
2022-12-22T14:38:24.833Z,82.00
2022-12-22T14:41:47.057Z,83.25
2022-12-22T14:44:51.764Z,82.25
2022-12-22T14:47:58.495Z,87.25
2022-12-22T14:51:05.849Z,89.00
2022-12-22T14:54:22.956Z,88.25
2022-12-22T14:57:36.755Z,92.75
2022-12-22T15:00:46.442Z,98.33
2022-12-22T15:04:18.180Z,86.25
2022-12-22T15:08:04.048Z,99.00
2022-12-22T15:10:57.264Z,103.67
2022-12-22T15:14:25.006Z,129.67
2022-12-22T15:17:30.587Z,132.67
2022-12-22T15:20:39.505Z,130.00
2022-12-22T15:23:48.207Z,138.00
2022-12-22T15:26:54.421Z,150.67
2022-12-22T15:30:00.713Z,127.33
2022-12-22T15:33:35.354Z,135.67
2022-12-22T15:36:40.938Z,165.25
2022-12-22T15:39:45.790Z,154.00
2022-12-22T15:43:57.134Z,151.00
2022-12-22T15:47:06.819Z,152.25
2022-12-22T15:50:19.250Z,170.50
2022-12-22T15:53:27.183Z,196.50
2022-12-22T15:56:42.759Z,185.25
2022-12-22T15:59:58.773Z,177.00
2022-12-22T16:03:09.182Z,186.25
2022-12-22T16:06:42.277Z,190.25
2022-12-22T16:09:49.488Z,273.75
2022-12-22T16:13:00.658Z,219.50
2022-12-22T16:16:08.686Z,214.25
2022-12-22T16:19:21.307Z,236.50
2022-12-22T16:22:39.809Z,237.75
2022-12-22T16:26:10.500Z,256.50
2022-12-22T16:29:18.059Z,259.00
2022-12-22T16:33:04.791Z,282.50
2022-12-22T16:36:11.886Z,265.00
2022-12-22T16:39:17.270Z,250.50
2022-12-22T16:45:45.645Z,310.00
2022-12-22T16:48:53.218Z,309.00
2022-12-22T16:51:58.404Z,302.00
2022-12-22T16:55:03.422Z,290.75
2022-12-22T16:58:46.735Z,261.75
2022-12-22T17:01:56.415Z,216.75
2022-12-22T17:05:07.857Z,187.25
2022-12-22T17:08:29.457Z,217.25
2022-12-22T17:11:37.845Z,230.00
2022-12-22T17:18:32.963Z,196.50
2022-12-22T17:21:48.436Z,210.75
2022-12-22T17:24:57.977Z,122.75
2022-12-22T17:28:04.503Z,189.50
2022-12-22T17:31:09.482Z,310.25
2022-12-22T17:34:16.776Z,241.00
2022-12-22T17:37:23.621Z,273.50
2022-12-22T17:40:30.952Z,320.00
2022-12-22T17:43:35.767Z,325.75
2022-12-22T17:46:40.023Z,327.75
2022-12-22T17:49:44.964Z,326.00
2022-12-22T17:52:50.896Z,361.00
2022-12-22T17:56:12.746Z,243.25
2022-12-22T17:59:16.943Z,242.75
2022-12-22T18:02:22.342Z,287.75
2022-12-22T18:05:30.064Z,329.75
2022-12-22T18:08:35.207Z,316.50
2022-12-22T18:11:46.153Z,228.50
2022-12-22T18:14:50.722Z,215.00
2022-12-22T18:17:55.305Z,297.75
2022-12-22T18:21:06.951Z,219.25
2022-12-22T18:24:17.340Z,256.25
2022-12-22T18:27:24.342Z,289.50
2022-12-22T18:30:30.821Z,223.00
2022-12-22T18:33:35.393Z,224.50
2022-12-22T18:36:44.273Z,209.50
2022-12-22T18:39:48.265Z,237.75
2022-12-22T18:42:57.254Z,243.00
2022-12-22T18:46:00.947Z,181.75
2022-12-22T18:49:06.311Z,222.25
2022-12-22T18:52:18.374Z,271.50
2022-12-22T18:55:24.386Z,480.00
2022-12-22T18:58:29.571Z,296.75
2022-12-22T19:01:38.896Z,284.25
2022-12-22T19:04:43.744Z,265.50
2022-12-22T19:07:50.922Z,248.00
2022-12-22T19:10:56.600Z,260.00
2022-12-22T19:14:02.565Z,276.75
2022-12-22T19:17:11.729Z,247.75
2022-12-22T19:20:17.927Z,286.00
2022-12-22T19:24:01.352Z,311.50
2022-12-22T19:27:05.969Z,263.50
2022-12-22T19:30:18.797Z,262.00
2022-12-22T19:33:29.519Z,255.00
2022-12-22T19:36:34.561Z,251.00
2022-12-22T19:39:39.142Z,203.00
2022-12-22T19:42:45.150Z,280.00
2022-12-22T19:45:55.582Z,266.25
2022-12-22T19:49:00.887Z,281.50
2022-12-22T19:52:07.889Z,276.00
2022-12-22T19:55:13.128Z,276.75
2022-12-22T19:58:21.367Z,287.75
2022-12-22T20:01:26.729Z,306.25
2022-12-22T20:04:30.939Z,302.25
2022-12-22T20:07:37.170Z,226.75
2022-12-22T20:10:41.969Z,247.00
2022-12-22T20:13:47.721Z,210.50
2022-12-22T20:16:56.299Z,199.75
2022-12-22T20:20:05.199Z,202.00
2022-12-22T20:23:15.376Z,194.00
2022-12-22T20:26:23.244Z,202.75
2022-12-22T20:29:27.783Z,196.25
2022-12-22T20:32:35.988Z,220.25
2022-12-22T20:35:42.488Z,274.75
2022-12-22T20:38:49.772Z,241.75
2022-12-22T20:41:58.809Z,223.25
2022-12-22T20:45:04.703Z,228.25
2022-12-22T20:48:21.097Z,214.75
2022-12-22T20:51:27.677Z,205.25
2022-12-22T20:54:34.647Z,217.25
2022-12-22T20:57:40.316Z,210.00
2022-12-22T21:00:45.884Z,148.67
2022-12-22T21:03:52.809Z,175.00
2022-12-22T21:07:21.204Z,145.50
2022-12-22T21:10:36.059Z,218.25
2022-12-22T21:13:41.379Z,177.75
2022-12-22T21:16:49.009Z,173.25
2022-12-22T21:19:55.612Z,213.50
2022-12-22T21:23:02.044Z,204.50
2022-12-22T21:26:07.737Z,204.00
2022-12-22T21:29:30.060Z,202.00
2022-12-22T21:32:37.312Z,204.50
2022-12-22T21:35:55.625Z,169.75
2022-12-22T21:39:06.514Z,162.50
2022-12-22T21:42:16.046Z,156.25
2022-12-22T21:45:23.565Z,173.00
2022-12-22T21:48:27.455Z,150.33
2022-12-22T21:56:21.751Z,146.67
2022-12-22T22:00:29.615Z,143.67
2022-12-22T22:04:28.316Z,182.25
2022-12-22T22:08:44.467Z,179.50
2022-12-22T22:12:27.958Z,170.25
2022-12-22T22:15:52.983Z,148.00
2022-12-22T22:19:13.257Z,144.67
2022-12-22T22:22:32.633Z,140.67
2022-12-22T22:26:00.654Z,154.00
2022-12-22T22:30:17.200Z,150.00
2022-12-22T22:38:16.089Z,78.00
2022-12-22T22:42:27.544Z,143.00
2022-12-22T22:45:55.914Z,168.00
2022-12-22T22:49:24.240Z,87.25
2022-12-22T22:52:45.069Z,165.67
2022-12-22T22:55:59.954Z,173.25
2022-12-22T22:59:05.447Z,157.75
2022-12-22T23:07:02.083Z,157.33
2022-12-22T23:10:41.102Z,159.50
2022-12-22T23:13:51.586Z,143.00
2022-12-22T23:17:08.499Z,144.00
2022-12-22T23:20:32.486Z,141.00
2022-12-22T23:23:59.749Z,129.33
2022-12-22T23:27:44.426Z,148.00
2022-12-22T23:34:33.488Z,141.00
2022-12-22T23:38:03.948Z,117.33
2022-12-22T23:41:51.140Z,115.67
2022-12-22T23:45:02.433Z,161.25
2022-12-22T23:48:20.868Z,159.33
2022-12-22T23:52:49.012Z,153.67
2022-12-22T23:55:58.732Z,167.67
